Pagina principale
METAR-TAF:

METAR-TAF

Aeroporti :

Aeroporto di Lecce-Galatina

Lecce, Italia

latitudine: 40-14N, longitudine: 018-09E, altezza: 48 m

Osservazione

Il bollettino è stato emesso 1 ora e 9 minuti fa, alle 17:55 UTC
Vento 3 kt da nord
Temperature 8°C
Umidità 81%
Pressione 1029 hPa
Visibilità 10 km o più
nessuna nube inferiore a 1500 m e nessun cumulonembo

METAR: LIBN 161755Z 35003KT CAVOK 08/05 Q1029 RMK SKC VIS MIN 9999 WIND THR14 35002KT WIND THR32 33001KT BLU

Ora: 20:04 (19:04 UTC)


TAF: mancante

Osservazioni e previsioni meteorologiche di più di 4000 aeroporti (messaggi METAR e TAF).

Le stazioni disponibili sono rappresentate dai dischi gialli e rossi sulla carta.

Puntare il mouse per vedere il nome della stazione.

Clicca sopra per visualizzare le osservazioni e previsioni meteorologiche.

Per cambiare la mappa : fare clic sui pulsanti verdi con una croce nera per ingrandire, il pulsante verde con un trattino per diminuire, o sulla freccia verde per le mappe adiacenti.


METAR-TAF: